Kitimat, Canada
Current Conditions -  °F | °C
As of 11:12 PM on Sunday 23 Nov 2014 (Local Time) from CYXT Reporting Station
Light Rain Light Rain  
Wind Chill: 34°   Ceiling: 800
Heat Index: 37°   Visibility: 3mi
Dew Point: 36°   Wind: 5mph
Humidity: 93%   Direction: 140°SE
Pressure: 30.03"   Gusts: NA
Location:  54°N, 128.7°W
Report Text: CYXT 240712Z 14004KT 3SM -RA BR FEW002 OVC008 03/02 A3003 RMK SF2SF6 SLP177
Loading
Personal Weather Stations






























Interactive Weather Map New forecast layout! Learn more

10-Day Weather Forecast

Advertisements
Track Severe Weather on mobile